createdAt,value
2022-09-04T00:07:31.365Z,24
2022-09-04T00:17:40.963Z,24
2022-09-04T00:27:50.729Z,24
2022-09-04T00:38:00.432Z,21
2022-09-04T00:48:10.525Z,25
2022-09-04T00:58:19.729Z,24
2022-09-04T01:08:27.394Z,30
2022-09-04T01:18:36.117Z,27
2022-09-04T01:28:46.648Z,25
2022-09-04T01:38:56.265Z,24
2022-09-04T01:49:04.180Z,24
2022-09-04T01:59:15.240Z,24
2022-09-04T02:09:23.017Z,25
2022-09-04T02:19:33.100Z,24
2022-09-04T02:29:42.881Z,28
2022-09-04T02:39:52.604Z,25
2022-09-04T02:50:01.932Z,27
2022-09-04T03:00:11.871Z,24
2022-09-04T03:10:31.297Z,24
2022-09-04T03:20:41.104Z,25
2022-09-04T03:30:50.252Z,23
2022-09-04T03:40:58.517Z,24
2022-09-04T03:51:07.337Z,24
2022-09-04T04:01:24.935Z,21
2022-09-04T04:11:28.374Z,21
2022-09-04T04:21:36.857Z,20
2022-09-04T04:31:45.630Z,21
2022-09-04T04:41:54.013Z,23
2022-09-04T04:52:04.256Z,23
2022-09-04T05:02:14.090Z,20
2022-09-04T05:12:21.516Z,19
2022-09-04T05:22:34.614Z,21
2022-09-04T05:32:40.251Z,21
2022-09-04T05:42:49.386Z,23
2022-09-04T05:52:58.452Z,21
2022-09-04T06:03:08.255Z,22
2022-09-04T06:13:19.555Z,22
2022-09-04T06:23:28.555Z,23
2022-09-04T06:33:38.576Z,23
2022-09-04T06:43:48.937Z,20
2022-09-04T06:54:03.547Z,19
2022-09-04T07:04:12.540Z,19
2022-09-04T07:14:21.397Z,17
2022-09-04T07:24:35.390Z,15
2022-09-04T07:34:53.033Z,14
2022-09-04T07:45:04.802Z,14
2022-09-04T07:55:18.865Z,12
2022-09-04T08:05:31.225Z,12
2022-09-04T08:15:43.070Z,13
2022-09-04T08:25:46.448Z,14
2022-09-04T08:35:53.462Z,15
2022-09-04T08:46:02.847Z,15
2022-09-04T08:56:10.731Z,15
2022-09-04T09:06:21.239Z,13
2022-09-04T09:16:31.392Z,12
2022-09-04T09:26:41.123Z,11
2022-09-04T09:36:52.350Z,12
2022-09-04T09:47:05.972Z,10
2022-09-04T09:57:33.320Z,10
2022-09-04T10:07:45.988Z,10
2022-09-04T10:17:53.807Z,9
2022-09-04T10:28:02.839Z,10
2022-09-04T10:38:11.539Z,7
2022-09-04T10:48:19.178Z,9
2022-09-04T10:58:27.840Z,9
2022-09-04T11:08:36.686Z,9
2022-09-04T11:18:45.038Z,12
2022-09-04T11:28:51.293Z,9
2022-09-04T11:39:01.313Z,7
2022-09-04T11:49:13.056Z,7
2022-09-04T11:59:19.432Z,10
2022-09-04T12:09:29.007Z,9
2022-09-04T12:19:35.737Z,7
2022-09-04T12:29:43.395Z,7
2022-09-04T12:39:51.182Z,7
2022-09-04T12:49:58.487Z,9
2022-09-04T13:00:05.308Z,8
2022-09-04T13:10:12.224Z,9
2022-09-04T13:20:20.070Z,9
2022-09-04T13:30:33.170Z,9
2022-09-04T13:40:37.159Z,6
2022-09-04T13:50:45.026Z,9
2022-09-04T14:00:52.344Z,8
2022-09-04T14:11:00.447Z,9
2022-09-04T14:21:12.349Z,9
2022-09-04T14:31:17.239Z,7
2022-09-04T14:41:25.208Z,9
2022-09-04T14:51:31.922Z,10
2022-09-04T15:01:38.667Z,9
2022-09-04T15:11:44.890Z,9
2022-09-04T15:21:51.755Z,9
2022-09-04T15:31:57.340Z,9
2022-09-04T15:42:06.544Z,7
2022-09-04T15:52:12.551Z,9
2022-09-04T16:02:20.342Z,9
2022-09-04T16:12:29.296Z,10
2022-09-04T16:22:37.711Z,9
2022-09-04T16:32:47.348Z,9
2022-09-04T16:42:54.728Z,7
2022-09-04T16:53:13.190Z,8
2022-09-04T17:03:21.625Z,9
2022-09-04T17:13:37.215Z,7
2022-09-04T17:26:31.212Z,9
2022-09-04T17:37:17.570Z,9
2022-09-04T17:44:36.333Z,10
2022-09-04T17:54:49.593Z,10
2022-09-04T18:04:53.642Z,12
2022-09-04T18:15:11.840Z,10
2022-09-04T18:25:27.040Z,11
2022-09-04T18:37:13.656Z,10
2022-09-04T18:50:27.627Z,12
2022-09-04T18:56:21.176Z,13
2022-09-04T19:06:27.826Z,11
2022-09-04T19:16:35.788Z,12
2022-09-04T19:26:44.412Z,12
2022-09-04T19:36:54.404Z,12
2022-09-04T19:47:02.840Z,11
2022-09-04T19:57:31.853Z,12
2022-09-04T20:07:41.768Z,10
2022-09-04T20:17:46.644Z,12
2022-09-04T20:28:00.888Z,13
2022-09-04T20:38:12.618Z,13
2022-09-04T20:52:47.930Z,13
2022-09-04T21:00:39.326Z,15
2022-09-04T21:09:22.481Z,13
2022-09-04T21:19:32.267Z,13
2022-09-04T21:29:40.114Z,15
2022-09-04T21:39:58.377Z,13
2022-09-04T21:50:07.950Z,15
2022-09-04T22:02:32.916Z,15
2022-09-04T22:13:35.714Z,15
2022-09-04T22:21:06.803Z,13
2022-09-04T22:31:14.778Z,15
2022-09-04T22:41:23.441Z,15
2022-09-04T22:51:32.614Z,17
2022-09-04T23:01:43.440Z,16
2022-09-04T23:13:55.397Z,15
2022-09-04T23:26:31.907Z,15
2022-09-04T23:32:45.744Z,16
2022-09-04T23:42:55.676Z,12
2022-09-04T23:53:05.946Z,15
